Kevin Schreiber

Olheiro - VfL Wolfsburg
4 Abr 2027
Domingo
Processo

Personalidade

Adaptabilidade (16) Ambição (10) Controvérsia (4) Lealdade (5) Pressão (16) Profissionalismo (1) Espírito Esportivo (13) Temperamento (13)

Perfil

Estilo de Treinamento Democrático
Licença Continental C
Determinação 10
Gestão de Pessoas 13
Motivação 13
Disciplina 11
Satisfação no Trabalho
65%
Fadiga
0%
Função Olheiro
Salário 86.5K p/s
Contrato 14.03.2029

Desempenho

Comportamento Bom
Eficácia do Treinamento
37%
Desenvolvimento do Jogador
35%
Prevenção de Lesões
35%
Implementação Tática
45%

Eventos Recentes

Participou de uma reunião de recrutamento agora
Recomendou um alvo de transferência agora
Participou de uma reunião de recrutamento 7d atrás
Recomendou um alvo de transferência 7d atrás
Participou de uma reunião de recrutamento 7d atrás
Avaliou um jogador 7d atrás
Avaliou um jogador 14d atrás
Avaliou um jogador 14d atrás

Monitorando agora

108
Jogador Clube Status Habilidade Confiança Observado Última observação Último voto
Kauã Elias Shakhtar Ativo 124 / 138 40% 2 31.03.2027 -
Dramane Kamagaté USM Alger Ativo 110 / 115 40% 2 31.03.2027 -
Matvii Ponomarenko Dynamo Kyiv Ativo 113 / 112 40% 1 31.03.2027 -
Christian Kofane Bayer Leverkusen Ativo 127 / 142 40% 2 26.03.2027 -
Luke Baartman Chippa United Ativo 104 / 98 40% 2 26.03.2027 -
Adnan Courtois KV Oostende Ativo 115 / 125 40% 2 26.03.2027 -
Toni Tamarit Alverca Ativo 121 / 117 40% 1 20.03.2027 -
Kasra Taheri Sepahan Ativo 108 / 116 40% 1 18.03.2027 -
Ben Ahmed Kohili Paradou Ativo 95 / 123 40% 1 18.03.2027 -
Tiago Pucciarelli FK Senica Ativo 107 / 98 40% 1 18.03.2027 -
Leo Castledine Middlesbrough Ativo 127 / 138 40% 2 12.03.2027 -
David Kalokoh Ajax Ativo 118 / 110 40% 2 12.03.2027 -
Dom Ballard Leyton Orient Ativo 114 / 122 40% 1 12.03.2027 -
Mert Kömür FC Augsburg Ativo 128 / 127 40% 1 08.03.2027 -
Jeremy Arévalo VfB Stuttgart Ativo 128 / 137 40% 1 08.03.2027 -
Rocco Vata Watford Ativo 114 / 117 40% 3 07.03.2027 -
Ognjen Bondžulić Mladost Lucani Ativo 91 / 102 40% 1 07.03.2027 -
Yannik Wagner Heidenheim Ativo 90 / 116 40% 1 07.03.2027 -
Markus Jensen Nacional Ativo 110 / 114 40% 1 04.03.2027 -
Jonás Luna Osasuna Ativo 120 / 112 40% 1 01.03.2027 -
Carl Rushworth Coventry City Ativo 134 / 130 40% 4 30.12.2026 -
Iñaki Peña Panathinaikos Ativo 142 / 149 40% 2 30.12.2026 -
Ruslan Neshcheret Dynamo Kyiv Ativo 124 / 129 40% 1 30.12.2026 -
Pascal Loretz Luzern Ativo 132 / 137 40% 3 29.12.2026 -
Elia Caprile Cagliari Ativo 150 / 145 40% 1 29.12.2026 -
Eliezer Mayenda Stade Rennais Ativo 136 / 128 40% 3 28.12.2026 -
Conrad Harder RB Leipzig Ativo 131 / 126 40% 1 28.12.2026 -
Max Moerstedt TSG Hoffenheim Ativo 111 / 120 40% 1 27.12.2026 -
Sem Westerveld Zaragoza Ativo 114 / 110 40% 2 26.12.2026 -
Heorhii Yermakov Metalist Ativo 119 / 111 40% 1 26.12.2026 -
Gabriel Brazão Santos Ativo 128 / 145 40% 1 26.12.2026 -
Ajay Matthews Millwall Ativo 100 / 115 40% 3 25.12.2026 -
Frans Krätzig Red Bull Salzburg Ativo 130 / 127 40% 3 24.12.2026 -
Patrik Wålemark Lech Ativo 126 / 113 40% 1 24.12.2026 -
Arkaitz Mariezkurrena Real Sociedad Ativo 122 / 116 40% 2 20.12.2026 -
Anthony Patterson Wrexham Ativo 132 / 131 40% 6 19.12.2026 -
Gonzalo Crettaz NEC Ativo 129 / 137 40% 1 19.12.2026 -
César Huerta Pumas UNAM Ativo 126 / 135 40% 3 14.12.2026 -
Adriano Bertaccini Anderlecht Ativo 134 / 132 40% 3 14.12.2026 -
Brian Gutiérrez Guadalajara Ativo 136 / 144 40% 2 14.12.2026 -
Furkan Dursun Thun Ativo 101 / 114 40% 2 12.12.2026 -
Borna Knezović Casarano Ativo 95 / 117 40% 1 12.12.2026 -
Justin Hammel Grasshopper Ativo 122 / 127 40% 2 09.12.2026 -
Jamie Cumming Oxford United Ativo 114 / 115 40% 1 09.12.2026 -
Jakub Stolarczyk Leicester City Ativo 125 / 126 40% 2 05.12.2026 -
Yehvann Diouf OGC Nice Ativo 143 / 149 40% 2 05.12.2026 -
Ben Voll St. Pauli Ativo 127 / 107 40% 1 05.12.2026 -
Matteo di Giusto Luzern Ativo 130 / 134 40% 3 30.11.2026 -
Michy Fellaini KV Oostende Ativo 144 / 137 40% 1 30.11.2026 -
Kostantis Tzolakis Hull City Ativo 139 / 137 40% 3 28.11.2026 -
Haissem Hassan Bloemfontein Celtic Ativo 143 / 149 40% 2 28.11.2026 -
Marquinhos Spartak Moscow Ativo 132 / 116 40% 2 27.11.2026 -
Marcel Ruiz Toluca Ativo 142 / 125 40% 3 27.11.2026 -
Felipe Zenobio Tigre Ativo 133 / 125 40% 2 24.11.2026 -
Guilherme Fernandes Córdoba Ativo 132 / 125 40% 2 24.11.2026 -
Luciano Gondou CSKA Moscow Ativo 137 / 125 40% 1 23.11.2026 -
Maurits Kjærgaard Red Bull Salzburg Ativo 135 / 129 40% 2 19.11.2026 -
Alvyn Sanches Young Boys Ativo 133 / 123 40% 2 19.11.2026 -
Jones El-Abdellaoui Celta Ativo 127 / 129 40% 2 16.11.2026 -
Gorka Carrera Real Sociedad Ativo 119 / 111 40% 2 15.11.2026 -
Karl Hein Werder Bremen Ativo 136 / 130 40% 4 12.11.2026 Observar
Hugo Souza Corinthians Ativo 140 / 146 40% 3 10.11.2026 -
Dmytro Riznyk Shakhtar Ativo 137 / 142 40% 1 10.11.2026 -
José Paradela Cruz Azul Ativo 151 / 136 40% 4 06.11.2026 -
Dženan Pejčinović VfB Stuttgart Ativo 122 / 119 40% 1 06.11.2026 -
Paulinho Palmeiras Ativo 149 / 130 40% 1 06.11.2026 -
Igor Tyjon Blackburn Rovers Ativo 92 / 112 40% 1 03.11.2026 -
Niklas Steffen Thun Ativo 123 / 104 40% 2 01.11.2026 -
Michael Cooper Sheffield United Ativo 130 / 134 40% 2 01.11.2026 -
Marvin Keller Young Boys Ativo 137 / 136 40% 2 30.10.2026 -
Mauro Silveira Junior Ativo 116 / 107 40% 2 30.10.2026 -
Isaac Schmidt Young Boys Ativo 128 / 134 40% 2 29.10.2026 -
Sorriso Famalicao Ativo 130 / 131 40% 1 29.10.2026 -
César Ibáñez Huracán Ativo 131 / 112 40% 1 28.10.2026 -
Djordje Mihailović Toronto FC Ativo 136 / 140 40% 1 28.10.2026 -
Juan Bisanz Huracán Ativo 124 / 126 40% 3 24.10.2026 -
Helinho Toluca Ativo 138 / 136 40% 1 23.10.2026 -
Jaminton Campaz Rosario Central Ativo 134 / 133 40% 1 21.10.2026 -
Iván Martín Racing Club Ativo 138 / 142 40% 1 20.10.2026 -
Juan Pablo Domínguez Leon Ativo 131 / 125 40% 1 20.10.2026 -
Patrick Schulte Columbus Crew Ativo 116 / 126 40% 1 18.10.2026 -
Igor Nikić Mirandés Ativo 125 / 121 40% 2 17.10.2026 -
Christian Früchtl Red Bull Salzburg Ativo 117 / 112 40% 2 14.10.2026 -
Anthony Racioppi Sion Ativo 116 / 120 40% 1 14.10.2026 -
Ozziel Herrera Tigres Ativo 135 / 114 40% 1 11.10.2026 -
Efraín Álvarez Guadalajara Ativo 122 / 144 40% 1 09.10.2026 -
Matko Miljevic Racing Club Ativo 127 / 139 40% 1 09.10.2026 -
Talles Magno New York City Ativo 126 / 147 40% 1 07.10.2026 -
Cesar Corona Veracruz Ativo 140 / 144 40% 1 07.10.2026 -
Mattia Zanotti Lugano Ativo 135 / 127 40% 2 06.10.2026 -
Urko Izeta Cádiz Ativo 136 / 130 40% 1 30.09.2026 -
Leandro Lozano Boca Juniors Ativo 126 / 137 40% 1 28.09.2026 -
Tiago Palacios Estudiantes Ativo 125 / 139 40% 1 28.09.2026 -
Lucas Souto Defensa y Justicia Ativo 126 / 112 40% 1 25.09.2026 -
Diego Lainez Tigres Ativo 124 / 139 40% 1 23.09.2026 -
Jonas Urbig Bayern Munich Ativo 125 / 134 40% 1 18.09.2026 -
Radek Vítek Middlesbrough Ativo 132 / 137 40% 1 18.09.2026 -
Nicolás Sumavil Platense Ativo 125 / 109 40% 1 17.09.2026 -
Lukas Daschner St. Gallen Ativo 132 / 130 40% 1 17.09.2026 -
Brian Rodríguez Club America Ativo 136 / 142 40% 1 17.09.2026 -
Abubakr Barry Red Bull Salzburg Ativo 120 / 136 40% 1 17.09.2026 -
Santiago Montiel Independiente Ativo 134 / 127 40% 1 15.09.2026 -
Philip Otele Basel Ativo 119 / 134 40% 1 15.09.2026 -
Metinho Basel Ativo 135 / 143 40% 1 11.09.2026 -
Armin Gigović Young Boys Ativo 116 / 122 40% 1 11.09.2026 -
Antony Portland Timbers Ativo 116 / 142 40% 1 08.09.2026 -
Dominik Kohr Mainz 05 Ativo 127 / 136 65% 1 24.08.2026 Aprovar
Takehiro Tomiyasu Crystal Palace Ativo 141 / 135 40% 1 01.08.2026 -